createdAt,value
2017-04-25T00:00:26.725Z,0
2017-04-25T00:01:26.524Z,0
2017-04-25T00:02:26.788Z,0
2017-04-25T00:03:26.794Z,0
2017-04-25T00:04:26.757Z,0
2017-04-25T00:05:26.755Z,0
2017-04-25T00:06:26.132Z,0
2017-04-25T00:07:26.503Z,0
2017-04-25T00:09:01.918Z,0
2017-04-25T00:09:27.075Z,0
2017-04-25T00:10:28.973Z,0
2017-04-25T00:11:26.997Z,0
2017-04-25T00:12:27.198Z,0
2017-04-25T00:13:27.351Z,0
2017-04-25T00:14:27.145Z,0
2017-04-25T00:15:26.930Z,0
2017-04-25T00:16:27.312Z,0
2017-04-25T00:17:27.471Z,0
2017-04-25T00:18:28.169Z,0
2017-04-25T00:19:27.232Z,0
2017-04-25T00:20:27.367Z,0
2017-04-25T00:21:27.069Z,0
2017-04-25T00:22:26.591Z,0
2017-04-25T00:23:26.365Z,0
2017-04-25T00:24:26.870Z,0
2017-04-25T00:25:26.866Z,0
2017-04-25T00:26:26.610Z,0
2017-04-25T00:27:26.929Z,0
2017-04-25T00:28:26.889Z,0
2017-04-25T00:29:26.901Z,0
2017-04-25T00:30:26.902Z,0
2017-04-25T00:31:26.912Z,0
2017-04-25T00:32:26.894Z,0
2017-04-25T00:33:27.049Z,0
2017-04-25T00:34:26.975Z,0
2017-04-25T00:35:26.659Z,0
2017-04-25T00:36:26.722Z,0
2017-04-25T00:37:26.936Z,0
2017-04-25T00:38:26.680Z,0
2017-04-25T00:39:26.690Z,0
2017-04-25T00:40:27.682Z,0
2017-04-25T00:41:27.240Z,0
2017-04-25T00:42:27.691Z,0
2017-04-25T00:43:27.579Z,0
2017-04-25T00:44:27.346Z,0
2017-04-25T00:45:27.333Z,0
2017-04-25T00:46:27.359Z,0
2017-04-25T00:47:27.297Z,0
2017-04-25T00:48:27.579Z,0
2017-04-25T00:49:27.544Z,0
2017-04-25T00:50:27.510Z,0
2017-04-25T00:51:27.359Z,0
2017-04-25T00:52:27.389Z,0
2017-04-25T00:53:27.560Z,0
2017-04-25T00:54:27.366Z,0
2017-04-25T00:55:27.414Z,0
2017-04-25T00:56:28.274Z,0
2017-04-25T00:57:27.445Z,0
2017-04-25T00:58:27.442Z,0
2017-04-25T00:59:27.598Z,0
2017-04-25T01:00:27.492Z,0
2017-04-25T01:01:27.784Z,0
2017-04-25T01:02:27.444Z,0
2017-04-25T01:03:27.624Z,0
2017-04-25T01:04:27.415Z,0
2017-04-25T01:05:28.274Z,0
2017-04-25T01:06:27.397Z,0
2017-04-25T01:07:28.893Z,0
2017-04-25T01:08:27.874Z,0
2017-04-25T01:09:27.473Z,0
2017-04-25T01:10:27.670Z,0
2017-04-25T01:11:27.557Z,0
2017-04-25T01:12:28.108Z,0
2017-04-25T01:13:27.471Z,0
2017-04-25T01:14:27.902Z,0
2017-04-25T01:15:27.232Z,0
2017-04-25T01:16:27.686Z,0
2017-04-25T01:17:27.735Z,0
2017-04-25T01:18:27.496Z,0
2017-04-25T01:19:27.425Z,0
2017-04-25T01:20:27.777Z,0
2017-04-25T01:21:27.775Z,0
2017-04-25T01:22:27.544Z,0
2017-04-25T01:23:27.530Z,0
2017-04-25T01:24:28.139Z,0
2017-04-25T01:25:27.856Z,0
2017-04-25T01:26:27.544Z,0
2017-04-25T01:27:27.314Z,0
2017-04-25T01:28:27.751Z,0
2017-04-25T01:29:27.401Z,0
2017-04-25T01:30:27.569Z,0
2017-04-25T01:31:27.967Z,0
2017-04-25T01:32:27.515Z,0
2017-04-25T01:33:27.453Z,0
2017-04-25T01:34:27.590Z,0
2017-04-25T01:35:27.581Z,0
2017-04-25T01:36:27.442Z,0
2017-04-25T01:37:27.397Z,0
2017-04-25T01:38:27.812Z,0
2017-04-25T01:39:27.630Z,0
2017-04-25T01:40:27.049Z,0
2017-04-25T01:41:29.641Z,0
2017-04-25T01:42:27.987Z,0
2017-04-25T01:43:27.748Z,0
2017-04-25T01:44:27.690Z,0
2017-04-25T01:45:28.449Z,0
2017-04-25T01:46:28.109Z,0
2017-04-25T01:47:27.912Z,0
2017-04-25T01:48:27.663Z,0
2017-04-25T01:49:27.723Z,0
2017-04-25T01:50:27.446Z,0
2017-04-25T01:51:27.503Z,0
2017-04-25T01:52:27.551Z,0
2017-04-25T01:53:27.889Z,0
2017-04-25T01:54:28.010Z,0
2017-04-25T01:55:27.547Z,0
2017-04-25T01:56:27.887Z,0
2017-04-25T01:57:28.115Z,0
2017-04-25T01:58:27.871Z,0
2017-04-25T01:59:27.927Z,0
2017-04-25T02:00:27.775Z,0
2017-04-25T02:01:27.559Z,0
2017-04-25T02:02:27.985Z,0
2017-04-25T02:03:27.748Z,0
2017-04-25T02:04:27.970Z,0
2017-04-25T02:05:28.121Z,0
2017-04-25T02:06:27.584Z,0
2017-04-25T02:07:27.964Z,0
2017-04-25T02:08:27.572Z,0
2017-04-25T02:09:28.305Z,0
2017-04-25T02:10:27.780Z,0
2017-04-25T02:11:28.238Z,0
2017-04-25T02:12:28.451Z,0
2017-04-25T02:13:28.082Z,0
2017-04-25T02:14:27.580Z,0
2017-04-25T02:15:27.844Z,0
2017-04-25T02:16:27.822Z,0
2017-04-25T02:17:28.482Z,0
2017-04-25T02:18:27.925Z,0
2017-04-25T02:19:28.046Z,0
2017-04-25T02:20:28.208Z,0
2017-04-25T02:21:27.639Z,0
2017-04-25T02:22:28.103Z,0
2017-04-25T02:23:27.909Z,0
2017-04-25T02:24:27.923Z,0
2017-04-25T02:25:28.322Z,0
2017-04-25T02:26:27.967Z,0
2017-04-25T02:27:27.859Z,0
2017-04-25T02:28:28.033Z,0
2017-04-25T02:29:28.247Z,0
2017-04-25T02:30:27.682Z,0
2017-04-25T02:31:27.679Z,0
2017-04-25T02:32:27.698Z,0
2017-04-25T02:33:28.777Z,0
2017-04-25T02:34:28.395Z,0
2017-04-25T02:35:29.317Z,0
2017-04-25T02:36:28.194Z,0
2017-04-25T02:37:27.797Z,0
2017-04-25T02:38:27.599Z,0
2017-04-25T02:39:27.927Z,0
2017-04-25T02:40:28.183Z,0
2017-04-25T02:41:28.256Z,0
2017-04-25T02:42:27.718Z,0
2017-04-25T02:43:28.175Z,0
2017-04-25T02:44:27.979Z,0
2017-04-25T02:45:27.958Z,0
2017-04-25T02:46:28.034Z,0
2017-04-25T02:47:28.243Z,0
2017-04-25T02:48:28.145Z,0
2017-04-25T02:49:28.418Z,0
2017-04-25T02:50:28.259Z,0
2017-04-25T02:51:27.823Z,0
2017-04-25T02:52:28.240Z,0
2017-04-25T02:53:28.083Z,0
2017-04-25T02:54:27.835Z,0
2017-04-25T02:55:28.023Z,0
2017-04-25T02:56:28.817Z,0
2017-04-25T02:57:28.069Z,0
2017-04-25T02:58:28.057Z,0
2017-04-25T02:59:28.104Z,0
2017-04-25T03:00:28.060Z,0
2017-04-25T03:01:29.322Z,0
2017-04-25T03:02:27.931Z,0
2017-04-25T03:03:28.243Z,0
2017-04-25T03:04:28.397Z,0
2017-04-25T03:05:28.248Z,0
2017-04-25T03:06:28.480Z,0
2017-04-25T03:07:28.194Z,0
2017-04-25T03:08:28.169Z,0
2017-04-25T03:09:27.540Z,0
2017-04-25T03:10:27.508Z,0
2017-04-25T03:11:27.527Z,0
2017-04-25T03:12:27.842Z,0
2017-04-25T03:13:27.959Z,0
2017-04-25T03:14:27.514Z,0
2017-04-25T03:15:27.520Z,0
2017-04-25T03:16:27.523Z,0
2017-04-25T03:17:27.524Z,0
2017-04-25T03:18:27.235Z,0
2017-04-25T03:19:27.224Z,0
2017-04-25T03:20:27.330Z,0
2017-04-25T03:21:28.107Z,0
2017-04-25T03:22:27.898Z,0
2017-04-25T03:23:27.982Z,0
2017-04-25T03:24:27.322Z,0
2017-04-25T03:25:27.961Z,0
2017-04-25T03:26:27.916Z,0
2017-04-25T03:27:28.041Z,0
2017-04-25T03:28:28.004Z,0
2017-04-25T03:29:28.212Z,0
2017-04-25T03:30:28.466Z,0
2017-04-25T03:31:27.630Z,0
2017-04-25T03:32:27.061Z,0
2017-04-25T03:33:27.899Z,0
2017-04-25T03:34:27.791Z,0
2017-04-25T03:35:28.194Z,0
2017-04-25T03:36:28.025Z,0
2017-04-25T03:37:28.605Z,0
2017-04-25T03:38:28.038Z,0
2017-04-25T03:39:28.043Z,0
2017-04-25T03:40:27.859Z,0
2017-04-25T03:41:27.935Z,0
2017-04-25T03:42:27.391Z,0
2017-04-25T03:43:28.023Z,0
2017-04-25T03:44:27.909Z,0
2017-04-25T03:45:28.055Z,0
2017-04-25T03:46:28.023Z,0
2017-04-25T03:47:27.836Z,0
2017-04-25T03:48:28.264Z,0
2017-04-25T03:49:27.423Z,0
2017-04-25T03:50:28.124Z,0
2017-04-25T03:51:27.487Z,0
2017-04-25T03:52:28.112Z,0
2017-04-25T03:53:28.287Z,0
2017-04-25T03:54:27.788Z,0
2017-04-25T03:55:28.100Z,0
2017-04-25T03:56:28.082Z,0
2017-04-25T03:57:27.925Z,0
2017-04-25T03:58:27.868Z,0
2017-04-25T03:59:27.800Z,0
2017-04-25T04:00:27.800Z,0
2017-04-25T04:01:27.845Z,0
2017-04-25T04:02:28.350Z,0
2017-04-25T04:03:28.359Z,0
2017-04-25T04:04:28.192Z,0
2017-04-25T04:05:28.367Z,0
2017-04-25T04:06:29.251Z,0
2017-04-25T04:07:28.418Z,0
2017-04-25T04:08:28.207Z,0
2017-04-25T04:09:27.560Z,0
2017-04-25T04:10:27.758Z,0
2017-04-25T04:11:28.395Z,0
2017-04-25T04:12:28.454Z,0
2017-04-25T04:13:27.939Z,0
2017-04-25T04:14:27.928Z,0
2017-04-25T04:15:27.900Z,0
2017-04-25T04:16:27.883Z,0
2017-04-25T04:17:28.202Z,0
2017-04-25T04:18:28.316Z,0
2017-04-25T04:19:28.223Z,0
2017-04-25T04:20:28.011Z,0
2017-04-25T04:21:28.456Z,0
2017-04-25T04:22:28.140Z,0
2017-04-25T04:23:28.152Z,0
2017-04-25T04:24:28.298Z,0
2017-04-25T04:25:28.483Z,0
2017-04-25T04:26:28.663Z,0
2017-04-25T04:27:28.560Z,0
2017-04-25T04:28:28.323Z,0
2017-04-25T04:29:27.855Z,0
2017-04-25T04:30:28.337Z,0
2017-04-25T04:31:28.383Z,0
2017-04-25T04:32:27.713Z,0
2017-04-25T04:33:28.322Z,0
2017-04-25T04:34:28.330Z,0
2017-04-25T04:35:28.558Z,0
2017-04-25T04:36:28.045Z,0
2017-04-25T04:37:28.639Z,0
2017-04-25T04:38:28.215Z,0
2017-04-25T04:39:27.709Z,0
2017-04-25T04:40:28.684Z,0
2017-04-25T04:41:28.594Z,0
2017-04-25T04:42:28.419Z,0
2017-04-25T04:43:28.355Z,0
2017-04-25T04:44:28.356Z,0
2017-04-25T04:45:28.468Z,0
2017-04-25T04:46:28.081Z,0
2017-04-25T04:47:28.400Z,0
2017-04-25T04:48:28.388Z,0
2017-04-25T04:49:28.614Z,0
2017-04-25T04:50:29.127Z,0
2017-04-25T04:51:28.495Z,0
2017-04-25T04:52:28.472Z,0
2017-04-25T04:53:28.102Z,0
2017-04-25T04:54:28.282Z,0
2017-04-25T04:55:28.672Z,0
2017-04-25T04:56:29.050Z,0
2017-04-25T04:57:28.431Z,0
2017-04-25T04:58:29.321Z,0
2017-04-25T04:59:28.453Z,0
2017-04-25T05:00:28.720Z,0
2017-04-25T05:01:28.655Z,5
2017-04-25T05:02:28.165Z,5
2017-04-25T05:03:28.408Z,5
2017-04-25T05:04:28.525Z,5
2017-04-25T05:05:28.370Z,5
2017-04-25T05:06:28.611Z,5
2017-04-25T05:07:28.586Z,5
2017-04-25T05:08:28.745Z,10
2017-04-25T05:09:28.963Z,5
2017-04-25T05:10:28.501Z,5
2017-04-25T05:11:28.586Z,5
2017-04-25T05:12:28.253Z,5
2017-04-25T05:13:28.259Z,5
2017-04-25T05:14:28.222Z,5
2017-04-25T05:15:29.233Z,5
2017-04-25T05:16:28.541Z,5
2017-04-25T05:17:28.319Z,5
2017-04-25T05:18:29.238Z,10
2017-04-25T05:19:28.558Z,5
2017-04-25T05:20:28.565Z,5
2017-04-25T05:21:28.680Z,5
2017-04-25T05:22:28.186Z,5
2017-04-25T05:23:28.270Z,10
2017-04-25T05:24:28.566Z,10
2017-04-25T05:25:28.567Z,15
2017-04-25T05:26:28.369Z,15
2017-04-25T05:27:28.577Z,15
2017-04-25T05:28:28.012Z,15
2017-04-25T05:29:28.343Z,15
2017-04-25T05:30:28.597Z,15
2017-04-25T05:31:28.342Z,15
2017-04-25T05:32:28.395Z,15
2017-04-25T05:33:28.305Z,15
2017-04-25T05:34:28.669Z,15
2017-04-25T05:35:28.650Z,15
2017-04-25T05:36:28.373Z,10
2017-04-25T05:37:28.329Z,10
2017-04-25T05:38:28.381Z,10
2017-04-25T05:39:28.441Z,10
2017-04-25T05:40:28.706Z,15
2017-04-25T05:41:28.660Z,15
2017-04-25T05:42:28.666Z,15
2017-04-25T05:43:28.051Z,15
2017-04-25T05:44:28.684Z,15
2017-04-25T05:45:28.677Z,15
2017-04-25T05:46:28.435Z,15
2017-04-25T05:47:28.740Z,10
2017-04-25T05:48:28.438Z,10
2017-04-25T05:49:28.762Z,15
2017-04-25T05:50:28.765Z,10
2017-04-25T05:51:28.719Z,10
2017-04-25T05:52:28.728Z,15
2017-04-25T05:53:28.841Z,10
2017-04-25T05:54:28.784Z,10
2017-04-25T05:55:28.428Z,10
2017-04-25T05:56:28.433Z,10
2017-04-25T05:57:28.542Z,10
2017-04-25T05:58:28.811Z,10
2017-04-25T05:59:28.821Z,10
2017-04-25T06:00:28.829Z,10
2017-04-25T06:01:28.772Z,10
2017-04-25T06:02:28.781Z,10
2017-04-25T06:03:28.839Z,10
2017-04-25T06:04:28.539Z,10
2017-04-25T06:05:28.848Z,10
2017-04-25T06:06:28.810Z,10
2017-04-25T06:07:28.809Z,10
2017-04-25T06:08:28.828Z,15
2017-04-25T06:09:28.825Z,25
2017-04-25T06:10:28.523Z,20
2017-04-25T06:11:28.933Z,15
2017-04-25T06:12:28.846Z,20
2017-04-25T06:13:28.900Z,20
2017-04-25T06:14:28.901Z,25
2017-04-25T06:15:28.598Z,20
2017-04-25T06:16:28.910Z,25
2017-04-25T06:17:28.532Z,25
2017-04-25T06:18:28.646Z,30
2017-04-25T06:19:28.593Z,40
2017-04-25T06:20:28.859Z,60
2017-04-25T06:21:28.551Z,75
2017-04-25T06:22:28.557Z,250
2017-04-25T06:23:28.932Z,80
2017-04-25T06:24:28.264Z,80
2017-04-25T06:25:28.627Z,105
2017-04-25T06:26:28.269Z,150
2017-04-25T06:27:28.591Z,115
2017-04-25T06:28:28.331Z,200
2017-04-25T06:29:28.913Z,500
2017-04-25T06:30:28.604Z,470
2017-04-25T06:31:28.970Z,425
2017-04-25T06:32:28.718Z,395
2017-04-25T06:33:28.965Z,185
2017-04-25T06:34:28.346Z,80
2017-04-25T06:35:28.972Z,75
2017-04-25T06:36:28.359Z,60
2017-04-25T06:37:28.991Z,65
2017-04-25T06:38:28.734Z,55
2017-04-25T06:39:28.748Z,105
2017-04-25T06:40:29.055Z,35
2017-04-25T06:41:29.070Z,20
2017-04-25T06:42:28.396Z,20
2017-04-25T06:43:28.715Z,15
2017-04-25T06:44:28.729Z,15
2017-04-25T06:45:29.140Z,10
2017-04-25T06:46:29.047Z,10
2017-04-25T06:47:29.051Z,5
2017-04-25T06:48:29.053Z,5
2017-04-25T06:49:28.758Z,5
2017-04-25T06:50:29.117Z,5
2017-04-25T06:51:29.127Z,5
2017-04-25T06:52:28.763Z,5
2017-04-25T06:53:28.826Z,10
2017-04-25T06:54:29.147Z,10
2017-04-25T06:55:28.868Z,15
2017-04-25T06:56:29.120Z,15
2017-04-25T06:57:29.112Z,15
2017-04-25T06:58:29.165Z,20
2017-04-25T06:59:28.505Z,25
2017-04-25T07:00:28.922Z,30
2017-04-25T07:01:29.132Z,40
2017-04-25T07:02:28.934Z,45
2017-04-25T07:03:29.146Z,35
2017-04-25T07:04:29.156Z,35
2017-04-25T07:05:28.636Z,30
2017-04-25T07:06:28.281Z,30
2017-04-25T07:07:29.235Z,40
2017-04-25T07:08:29.186Z,60
2017-04-25T07:09:28.879Z,90
2017-04-25T07:10:29.212Z,225
2017-04-25T07:11:29.267Z,140
2017-04-25T07:12:43.750Z,130
2017-04-25T07:13:28.930Z,120
2017-04-25T07:14:29.242Z,110
2017-04-25T07:15:28.936Z,110
2017-04-25T07:16:29.349Z,110
2017-04-25T07:17:28.734Z,110
2017-04-25T07:18:29.228Z,115
2017-04-25T07:19:29.219Z,115
2017-04-25T07:20:29.282Z,115
2017-04-25T07:21:28.926Z,115
2017-04-25T07:22:28.664Z,115
2017-04-25T07:23:28.985Z,115
2017-04-25T07:24:29.249Z,115
2017-04-25T07:25:29.260Z,115
2017-04-25T07:26:29.408Z,115
2017-04-25T07:27:29.062Z,110
2017-04-25T07:28:29.326Z,110
2017-04-25T07:29:28.970Z,110
2017-04-25T07:30:29.080Z,100
2017-04-25T07:31:29.041Z,95
2017-04-25T07:32:28.997Z,95
2017-04-25T07:33:28.684Z,85
2017-04-25T07:34:29.003Z,85
2017-04-25T07:35:28.802Z,85
2017-04-25T07:36:29.434Z,85
2017-04-25T07:37:29.026Z,95
2017-04-25T07:38:29.028Z,90
2017-04-25T07:39:29.348Z,90
2017-04-25T07:40:29.378Z,95
2017-04-25T07:41:29.097Z,90
2017-04-25T07:42:29.371Z,95
2017-04-25T07:43:29.111Z,90
2017-04-25T07:44:29.430Z,85
2017-04-25T07:45:29.441Z,100
2017-04-25T07:46:29.442Z,95
2017-04-25T07:47:28.472Z,95
2017-04-25T07:48:29.141Z,85
2017-04-25T07:49:28.813Z,90
2017-04-25T07:50:28.896Z,90
2017-04-25T07:51:29.168Z,85
2017-04-25T07:52:29.432Z,85
2017-04-25T07:53:29.488Z,95
2017-04-25T07:54:29.141Z,85
2017-04-25T07:55:29.457Z,80
2017-04-25T07:56:29.149Z,85
2017-04-25T07:57:29.464Z,90
2017-04-25T07:58:29.215Z,90
2017-04-25T07:59:29.533Z,90
2017-04-25T08:00:29.175Z,85
2017-04-25T08:01:28.970Z,80
2017-04-25T08:02:29.497Z,85
2017-04-25T08:03:28.881Z,90
2017-04-25T08:04:29.511Z,95
2017-04-25T08:05:29.306Z,85
2017-04-25T08:06:29.634Z,70
2017-04-25T08:07:29.536Z,65
2017-04-25T08:08:29.548Z,75
2017-04-25T08:09:29.600Z,75
2017-04-25T08:10:29.658Z,70
2017-04-25T08:11:29.663Z,70
2017-04-25T08:12:29.302Z,60
2017-04-25T08:13:29.370Z,55
2017-04-25T08:14:29.591Z,55
2017-04-25T08:15:29.685Z,55
2017-04-25T08:16:29.646Z,60
2017-04-25T08:17:29.663Z,65
2017-04-25T08:18:29.356Z,65
2017-04-25T08:19:30.023Z,70
2017-04-25T08:20:29.052Z,75
2017-04-25T08:21:29.058Z,80
2017-04-25T08:22:29.012Z,75
2017-04-25T08:23:29.657Z,75
2017-04-25T08:24:29.392Z,75
2017-04-25T08:25:29.764Z,75
2017-04-25T08:26:29.664Z,75
2017-04-25T08:27:29.727Z,75
2017-04-25T08:28:29.432Z,70
2017-04-25T08:29:29.428Z,75
2017-04-25T08:30:29.481Z,75
2017-04-25T08:31:29.388Z,80
2017-04-25T08:32:29.716Z,80
2017-04-25T08:33:29.722Z,75
2017-04-25T08:34:29.722Z,75
2017-04-25T08:35:29.519Z,85
2017-04-25T08:36:29.484Z,90
2017-04-25T08:37:29.431Z,95
2017-04-25T08:38:29.134Z,105
2017-04-25T08:39:29.826Z,95
2017-04-25T08:40:29.869Z,90
2017-04-25T08:41:29.820Z,85
2017-04-25T08:42:29.782Z,70
2017-04-25T08:43:29.474Z,55
2017-04-25T08:44:29.177Z,50
2017-04-25T08:45:29.491Z,55
2017-04-25T08:46:29.547Z,55
2017-04-25T08:47:29.860Z,65
2017-04-25T08:48:29.517Z,75
2017-04-25T08:49:29.210Z,85
2017-04-25T08:50:29.527Z,65
2017-04-25T08:51:29.901Z,85
2017-04-25T08:52:29.901Z,105
2017-04-25T08:53:29.590Z,100
2017-04-25T08:54:29.915Z,110
2017-04-25T08:55:29.935Z,100
2017-04-25T08:56:30.034Z,90
2017-04-25T08:57:29.266Z,85
2017-04-25T08:58:29.635Z,80
2017-04-25T08:59:30.006Z,75
2017-04-25T09:00:29.591Z,65
2017-04-25T09:01:29.607Z,65
2017-04-25T09:02:29.660Z,70
2017-04-25T09:03:29.927Z,75
2017-04-25T09:04:29.934Z,75
2017-04-25T09:05:29.955Z,70
2017-04-25T09:06:29.792Z,85
2017-04-25T09:07:30.003Z,110
2017-04-25T09:08:30.017Z,80
2017-04-25T09:09:29.663Z,70
2017-04-25T09:10:29.671Z,90
2017-04-25T09:11:30.037Z,75
2017-04-25T09:12:29.483Z,75
2017-04-25T09:13:29.739Z,80
2017-04-25T09:14:30.064Z,75
2017-04-25T09:15:30.015Z,80
2017-04-25T09:16:30.020Z,70
2017-04-25T09:17:29.779Z,70
2017-04-25T09:18:30.088Z,80
2017-04-25T09:19:30.042Z,90
2017-04-25T09:20:30.047Z,85
2017-04-25T09:21:30.055Z,75
2017-04-25T09:22:29.495Z,65
2017-04-25T09:23:29.761Z,60
2017-04-25T09:24:29.768Z,60
2017-04-25T09:25:30.081Z,55
2017-04-25T09:26:29.827Z,50
2017-04-25T09:27:29.836Z,45
2017-04-25T09:28:29.798Z,45
2017-04-25T09:29:30.160Z,50
2017-04-25T09:30:30.122Z,60
2017-04-25T09:31:30.135Z,65
2017-04-25T09:32:29.558Z,65
2017-04-25T09:33:29.827Z,75
2017-04-25T09:34:29.889Z,65
2017-04-25T09:35:30.164Z,65
2017-04-25T09:36:29.902Z,70
2017-04-25T09:37:30.164Z,75
2017-04-25T09:38:30.175Z,80
2017-04-25T09:39:29.927Z,100
2017-04-25T09:40:29.881Z,105
2017-04-25T09:41:29.888Z,85
2017-04-25T09:42:30.205Z,75
2017-04-25T09:43:29.590Z,80
2017-04-25T09:44:30.321Z,75
2017-04-25T09:45:30.228Z,75
2017-04-25T09:46:29.634Z,75
2017-04-25T09:47:29.928Z,75
2017-04-25T09:48:29.994Z,75
2017-04-25T09:49:30.262Z,70
2017-04-25T09:50:30.056Z,80
2017-04-25T09:51:30.400Z,80
2017-04-25T09:52:30.277Z,75
2017-04-25T09:53:30.337Z,75
2017-04-25T09:54:30.389Z,75
2017-04-25T09:55:30.596Z,75
2017-04-25T09:56:29.371Z,95
2017-04-25T09:57:30.002Z,65
2017-04-25T09:58:30.059Z,65
2017-04-25T09:59:30.320Z,65
2017-04-25T10:00:30.094Z,65
2017-04-25T10:01:30.030Z,55
2017-04-25T10:02:30.097Z,55
2017-04-25T10:03:30.041Z,65
2017-04-25T10:04:30.101Z,65
2017-04-25T10:05:30.210Z,70
2017-04-25T10:06:30.423Z,75
2017-04-25T10:07:30.384Z,95
2017-04-25T10:08:30.445Z,80
2017-04-25T10:09:30.088Z,70
2017-04-25T10:10:29.782Z,65
2017-04-25T10:11:30.149Z,65
2017-04-25T10:12:30.469Z,65
2017-04-25T10:13:30.428Z,60
2017-04-25T10:14:30.444Z,90
2017-04-25T10:15:29.877Z,70
2017-04-25T10:16:30.496Z,80
2017-04-25T10:17:30.554Z,85
2017-04-25T10:18:30.158Z,80
2017-04-25T10:19:30.472Z,75
2017-04-25T10:20:30.166Z,65
2017-04-25T10:21:30.170Z,60
2017-04-25T10:22:30.539Z,50
2017-04-25T10:23:30.546Z,50
2017-04-25T10:24:29.886Z,45
2017-04-25T10:25:30.252Z,45
2017-04-25T10:26:30.269Z,55
2017-04-25T10:27:29.903Z,60
2017-04-25T10:28:30.561Z,55
2017-04-25T10:29:30.587Z,50
2017-04-25T10:30:30.597Z,40
2017-04-25T10:31:30.247Z,40
2017-04-25T10:32:29.986Z,40
2017-04-25T10:33:30.312Z,40
2017-04-25T10:34:30.003Z,35
2017-04-25T10:35:30.632Z,30
2017-04-25T10:36:30.385Z,30
2017-04-25T10:37:29.973Z,30
2017-04-25T10:38:30.663Z,30
2017-04-25T10:39:30.662Z,35
2017-04-25T10:40:30.748Z,35
2017-04-25T10:41:29.745Z,40
2017-04-25T10:42:30.323Z,40
2017-04-25T10:43:30.685Z,45
2017-04-25T10:44:30.433Z,55
2017-04-25T10:45:30.446Z,65
2017-04-25T10:46:30.341Z,55
2017-04-25T10:47:30.402Z,70
2017-04-25T10:48:30.357Z,70
2017-04-25T10:49:30.732Z,75
2017-04-25T10:50:30.063Z,75
2017-04-25T10:51:30.760Z,75
2017-04-25T10:52:30.488Z,75
2017-04-25T10:53:30.708Z,60
2017-04-25T10:54:30.411Z,75
2017-04-25T10:55:29.883Z,55
2017-04-25T10:56:30.197Z,55
2017-04-25T10:57:30.422Z,50
2017-04-25T10:58:30.122Z,65
2017-04-25T10:59:30.759Z,70
2017-04-25T11:00:30.491Z,60
2017-04-25T11:01:30.141Z,65
2017-04-25T11:02:30.765Z,65
2017-04-25T11:03:30.470Z,65
2017-04-25T11:04:30.779Z,65
2017-04-25T11:05:30.891Z,90
2017-04-25T11:06:30.228Z,60
2017-04-25T11:07:29.879Z,55
2017-04-25T11:08:30.554Z,55
2017-04-25T11:09:30.572Z,50
2017-04-25T11:10:30.924Z,45
2017-04-25T11:11:30.883Z,45
2017-04-25T11:12:30.576Z,45
2017-04-25T11:13:30.531Z,45
2017-04-25T11:14:29.921Z,45
2017-04-25T11:15:30.987Z,45
2017-04-25T11:16:30.325Z,45
2017-04-25T11:17:30.920Z,55
2017-04-25T11:18:30.930Z,80
2017-04-25T11:19:30.885Z,80
2017-04-25T11:20:30.895Z,90
2017-04-25T11:21:30.903Z,90
2017-04-25T11:22:30.335Z,80
2017-04-25T11:23:30.705Z,80
2017-04-25T11:24:30.675Z,85
2017-04-25T11:25:30.307Z,90
2017-04-25T11:26:30.983Z,85
2017-04-25T11:27:31.042Z,65
2017-04-25T11:28:30.994Z,95
2017-04-25T11:29:30.960Z,80
2017-04-25T11:30:30.703Z,90
2017-04-25T11:31:30.710Z,85
2017-04-25T11:32:30.982Z,90
2017-04-25T11:33:30.992Z,90
2017-04-25T11:34:31.047Z,65
2017-04-25T11:35:31.047Z,50
2017-04-25T11:36:31.005Z,55
2017-04-25T11:37:30.776Z,55
2017-04-25T11:38:30.451Z,60
2017-04-25T11:39:31.083Z,85
2017-04-25T11:40:30.726Z,90
2017-04-25T11:41:30.733Z,80
2017-04-25T11:42:31.061Z,95
2017-04-25T11:43:31.154Z,95
2017-04-25T11:44:30.807Z,75
2017-04-25T11:45:31.135Z,60
2017-04-25T11:46:31.128Z,60
2017-04-25T11:47:30.827Z,55
2017-04-25T11:48:30.881Z,45
2017-04-25T11:49:30.580Z,35
2017-04-25T11:50:30.540Z,30
2017-04-25T11:51:31.114Z,25
2017-04-25T11:52:31.169Z,20
2017-04-25T11:53:31.232Z,20
2017-04-25T11:54:31.188Z,15
2017-04-25T11:55:31.140Z,20
2017-04-25T11:56:30.222Z,25
2017-04-25T11:57:30.946Z,30
2017-04-25T11:58:31.168Z,55
2017-04-25T11:59:30.866Z,60
2017-04-25T12:00:30.873Z,70
2017-04-25T12:01:31.189Z,85
2017-04-25T12:02:30.875Z,80
2017-04-25T12:03:30.894Z,80
2017-04-25T12:04:30.945Z,75
2017-04-25T12:05:30.955Z,75
2017-04-25T12:06:30.604Z,70
2017-04-25T12:07:30.915Z,70
2017-04-25T12:08:30.976Z,65
2017-04-25T12:09:30.932Z,60
2017-04-25T12:10:31.268Z,60
2017-04-25T12:11:31.308Z,60
2017-04-25T12:12:30.953Z,60
2017-04-25T12:13:31.008Z,60
2017-04-25T12:14:30.652Z,60
2017-04-25T12:15:31.068Z,55
2017-04-25T12:16:31.028Z,40
2017-04-25T12:17:31.343Z,55
2017-04-25T12:18:31.079Z,40
2017-04-25T12:19:30.999Z,55
2017-04-25T12:20:30.695Z,55
2017-04-25T12:21:31.476Z,55
2017-04-25T12:22:30.555Z,55
2017-04-25T12:23:30.835Z,50
2017-04-25T12:24:31.039Z,55
2017-04-25T12:25:31.042Z,60
2017-04-25T12:26:31.513Z,65
2017-04-25T12:27:31.365Z,65
2017-04-25T12:28:31.422Z,60
2017-04-25T12:29:31.071Z,60
2017-04-25T12:30:31.469Z,60
2017-04-25T12:31:31.469Z,60
2017-04-25T12:32:31.404Z,60
2017-04-25T12:33:31.410Z,65
2017-04-25T12:34:31.482Z,60
2017-04-25T12:35:31.421Z,60
2017-04-25T12:36:31.171Z,55
2017-04-25T12:37:31.175Z,55
2017-04-25T12:38:31.181Z,55
2017-04-25T12:39:30.932Z,45
2017-04-25T12:40:30.831Z,35
2017-04-25T12:41:31.157Z,35
2017-04-25T12:42:31.258Z,35
2017-04-25T12:43:31.577Z,35
2017-04-25T12:44:30.867Z,35
2017-04-25T12:45:31.287Z,40
2017-04-25T12:46:31.575Z,45
2017-04-25T12:47:31.504Z,50
2017-04-25T12:48:31.296Z,50
2017-04-25T12:49:30.963Z,55
2017-04-25T12:50:31.537Z,55
2017-04-25T12:51:31.223Z,55
2017-04-25T12:52:31.537Z,55
2017-04-25T12:53:31.288Z,55
2017-04-25T12:54:31.242Z,55
2017-04-25T12:55:31.257Z,55
2017-04-25T12:56:30.945Z,60
2017-04-25T12:57:31.424Z,60
2017-04-25T12:58:31.013Z,60
2017-04-25T12:59:31.325Z,60
2017-04-25T13:00:31.287Z,55
2017-04-25T13:01:30.981Z,55
2017-04-25T13:02:31.451Z,60
2017-04-25T13:03:31.004Z,65
2017-04-25T13:04:31.008Z,60
2017-04-25T13:05:31.778Z,60
2017-04-25T13:06:31.325Z,60
2017-04-25T13:07:31.698Z,60
2017-04-25T13:08:31.339Z,60
2017-04-25T13:09:31.712Z,60
2017-04-25T13:10:31.460Z,65
2017-04-25T13:11:30.738Z,55
2017-04-25T13:12:31.688Z,60
2017-04-25T13:13:31.740Z,60
2017-04-25T13:14:31.746Z,60
2017-04-25T13:15:31.698Z,65
2017-04-25T13:16:31.401Z,65
2017-04-25T13:17:31.457Z,65
2017-04-25T13:18:31.720Z,55
2017-04-25T13:19:31.828Z,50
2017-04-25T13:20:31.137Z,55
2017-04-25T13:21:31.135Z,50
2017-04-25T13:22:31.607Z,50
2017-04-25T13:23:31.190Z,45
2017-04-25T13:24:31.355Z,45
2017-04-25T13:25:31.508Z,40
2017-04-25T13:26:31.517Z,40
2017-04-25T13:27:31.568Z,40
2017-04-25T13:28:31.793Z,40
2017-04-25T13:29:31.827Z,50
2017-04-25T13:30:31.894Z,50
2017-04-25T13:31:31.551Z,50
2017-04-25T13:32:31.575Z,45
2017-04-25T13:33:31.849Z,45
2017-04-25T13:34:31.635Z,40
2017-04-25T13:35:31.957Z,40
2017-04-25T13:36:31.538Z,40
2017-04-25T13:37:31.284Z,40
2017-04-25T13:38:31.543Z,40
2017-04-25T13:39:31.556Z,45
2017-04-25T13:40:31.610Z,45
2017-04-25T13:41:31.572Z,45
2017-04-25T13:42:30.690Z,45
2017-04-25T13:43:31.277Z,40
2017-04-25T13:44:31.952Z,40
2017-04-25T13:45:31.909Z,35
2017-04-25T13:46:32.016Z,40
2017-04-25T13:47:31.717Z,40
2017-04-25T13:48:31.976Z,45
2017-04-25T13:49:31.939Z,45
2017-04-25T13:50:31.687Z,50
2017-04-25T13:51:31.689Z,50
2017-04-25T13:52:31.074Z,50
2017-04-25T13:53:32.016Z,50
2017-04-25T13:54:32.275Z,50
2017-04-25T13:55:31.990Z,55
2017-04-25T13:56:31.989Z,55
2017-04-25T13:57:31.836Z,55
2017-04-25T13:58:32.101Z,55
2017-04-25T13:59:31.754Z,60
2017-04-25T14:00:31.704Z,60
2017-04-25T14:01:31.708Z,60
2017-04-25T14:02:31.466Z,60
2017-04-25T14:03:31.220Z,55
2017-04-25T14:04:32.048Z,55
2017-04-25T14:05:32.204Z,50
2017-04-25T14:06:31.747Z,50
2017-04-25T14:07:31.812Z,45
2017-04-25T14:08:31.455Z,50
2017-04-25T14:09:31.874Z,45
2017-04-25T14:10:31.778Z,50
2017-04-25T14:11:31.458Z,50
2017-04-25T14:12:31.218Z,50
2017-04-25T14:13:31.537Z,50
2017-04-25T14:14:31.232Z,55
2017-04-25T14:15:31.552Z,55
2017-04-25T14:16:31.504Z,50
2017-04-25T14:17:31.510Z,50
2017-04-25T14:18:31.886Z,45
2017-04-25T14:19:32.250Z,45
2017-04-25T14:20:31.845Z,45
2017-04-25T14:21:31.592Z,45
2017-04-25T14:22:31.242Z,45
2017-04-25T14:23:30.984Z,40
2017-04-25T14:24:30.935Z,45
2017-04-25T14:25:31.259Z,45